createdAt,value
2018-11-28T00:01:07.909Z,92.60
2018-11-28T00:03:36.228Z,92.40
2018-11-28T00:06:04.551Z,92.30
2018-11-28T00:08:32.919Z,92.40
2018-11-28T00:15:57.528Z,92.30
2018-11-28T00:18:25.928Z,92.50
2018-11-28T00:20:54.249Z,92.80
2018-11-28T00:23:22.785Z,92.60
2018-11-28T00:25:51.108Z,92.40
2018-11-28T00:28:19.447Z,92.10
2018-11-28T00:30:47.813Z,92.10
2018-11-28T00:33:16.301Z,92.10
2018-11-28T00:35:44.808Z,92.10
2018-11-28T00:38:13.133Z,92.50
2018-11-28T00:40:41.529Z,92.00
2018-11-28T00:43:10.029Z,92.10
2018-11-28T00:45:38.290Z,92.50
2018-11-28T00:48:06.896Z,92.40
2018-11-28T00:50:35.201Z,92.10
2018-11-28T00:53:03.552Z,92.10
2018-11-28T00:55:31.947Z,91.80
2018-11-28T00:58:00.227Z,91.80
2018-11-28T01:00:28.472Z,92.10
2018-11-28T01:02:56.730Z,92.50
2018-11-28T01:05:25.028Z,92.10
2018-11-28T01:10:22.817Z,92.10
2018-11-28T01:12:51.789Z,92.20
2018-11-28T01:17:48.485Z,93.00
2018-11-28T01:20:17.843Z,92.50
2018-11-28T01:22:46.288Z,92.50
2018-11-28T01:25:15.608Z,92.40
2018-11-28T01:27:43.970Z,92.70
2018-11-28T01:30:15.069Z,92.20
2018-11-28T01:32:43.615Z,92.30
2018-11-28T01:35:13.760Z,92.40
2018-11-28T01:37:42.445Z,92.30
2018-11-28T01:40:12.555Z,92.60
2018-11-28T01:42:40.891Z,92.60
2018-11-28T01:45:10.712Z,92.50
2018-11-28T01:47:39.070Z,92.40
2018-11-28T01:50:10.726Z,92.40
2018-11-28T01:52:39.080Z,92.20
2018-11-28T01:55:09.781Z,92.10
2018-11-28T01:57:38.053Z,92.10
2018-11-28T02:00:15.310Z,92.20
2018-11-28T02:02:43.549Z,92.40
2018-11-28T02:05:12.342Z,92.50
2018-11-28T02:07:40.627Z,92.50
2018-11-28T02:10:13.613Z,92.50
2018-11-28T02:12:41.909Z,92.40
2018-11-28T02:15:13.415Z,99.60
2018-11-28T02:17:41.654Z,92.30
2018-11-28T02:20:13.037Z,99.90
2018-11-28T02:22:41.372Z,91.80
2018-11-28T02:27:38.317Z,91.60
2018-11-28T02:30:17.942Z,99.90
2018-11-28T02:32:46.873Z,95.50
2018-11-28T02:37:43.439Z,91.80
2018-11-28T02:40:13.675Z,91.70
2018-11-28T02:42:41.929Z,91.70
2018-11-28T02:45:14.329Z,91.80
2018-11-28T02:47:42.568Z,92.20
2018-11-28T02:50:10.800Z,91.80
2018-11-28T02:52:39.047Z,92.10
2018-11-28T02:55:10.469Z,92.10
2018-11-28T02:57:39.063Z,92.10
2018-11-28T03:00:10.205Z,91.90
2018-11-28T03:02:38.498Z,92.10
2018-11-28T03:05:08.452Z,91.60
2018-11-28T03:07:36.850Z,91.90
2018-11-28T03:10:08.098Z,92.00
2018-11-28T03:12:36.503Z,92.00
2018-11-28T03:15:05.862Z,91.90
2018-11-28T03:17:34.127Z,92.30
2018-11-28T03:20:02.391Z,92.20
2018-11-28T03:22:30.669Z,92.10
2018-11-28T03:24:58.966Z,91.70
2018-11-28T03:27:27.213Z,92.60
2018-11-28T03:29:55.567Z,91.90
2018-11-28T03:32:23.858Z,91.80
2018-11-28T03:34:52.181Z,91.60
2018-11-28T03:37:20.471Z,91.70
2018-11-28T03:39:48.745Z,99.90
2018-11-28T03:42:17.008Z,91.50
2018-11-28T03:44:45.285Z,91.30
2018-11-28T03:47:13.733Z,91.30
2018-11-28T03:49:42.065Z,91.70
2018-11-28T03:52:10.307Z,91.10
2018-11-28T03:54:38.649Z,91.30
2018-11-28T03:57:06.936Z,91.00
2018-11-28T03:59:35.236Z,90.90
2018-11-28T04:02:03.525Z,91.30
2018-11-28T04:04:31.759Z,91.10
2018-11-28T04:07:00.089Z,91.20
2018-11-28T04:09:28.388Z,91.50
2018-11-28T04:11:56.732Z,92.30
2018-11-28T04:14:24.993Z,91.90
2018-11-28T04:16:53.261Z,92.10
2018-11-28T04:21:49.650Z,91.80
2018-11-28T04:24:17.894Z,91.50
2018-11-28T04:26:46.160Z,91.30
2018-11-28T04:29:14.543Z,91.30
2018-11-28T04:31:42.831Z,94.60
2018-11-28T04:34:11.114Z,91.10
2018-11-28T04:36:39.382Z,90.90
2018-11-28T04:39:08.578Z,96.90
2018-11-28T04:41:36.834Z,99.90
2018-11-28T04:46:33.242Z,90.80
2018-11-28T04:49:01.486Z,90.80
2018-11-28T04:51:29.731Z,90.80
2018-11-28T04:53:57.979Z,90.20
2018-11-28T04:56:26.262Z,90.40
2018-11-28T04:58:54.558Z,90.70
2018-11-28T05:01:22.890Z,90.90
2018-11-28T05:03:51.236Z,91.00
2018-11-28T05:07:32.248Z,91.30
2018-11-28T05:10:00.442Z,92.90
2018-11-28T05:12:28.719Z,91.00
2018-11-28T05:14:56.965Z,91.00
2018-11-28T05:17:25.281Z,90.90
2018-11-28T05:19:53.565Z,90.90
2018-11-28T05:22:21.815Z,90.90
2018-11-28T05:24:50.102Z,90.80
2018-11-28T05:27:18.485Z,91.10
2018-11-28T05:29:46.764Z,90.70
2018-11-28T05:32:15.025Z,90.90
2018-11-28T05:34:43.358Z,90.70
2018-11-28T05:37:11.681Z,90.50
2018-11-28T05:39:40.015Z,90.10
2018-11-28T05:42:08.247Z,90.40
2018-11-28T05:44:36.590Z,90.10
2018-11-28T05:47:04.857Z,90.40
2018-11-28T05:49:33.140Z,90.00
2018-11-28T05:52:01.439Z,90.40
2018-11-28T05:54:29.707Z,90.40
2018-11-28T05:56:57.992Z,90.50
2018-11-28T05:59:27.554Z,90.80
2018-11-28T06:01:54.574Z,90.60
2018-11-28T06:04:22.809Z,90.60
2018-11-28T06:11:47.149Z,90.70
2018-11-28T06:14:15.371Z,91.20
2018-11-28T06:16:43.599Z,91.50
2018-11-28T06:19:11.842Z,91.30
2018-11-28T06:21:40.083Z,91.00
2018-11-28T06:24:08.332Z,91.00
2018-11-28T06:26:36.664Z,91.20
2018-11-28T06:29:05.048Z,90.90
2018-11-28T06:31:33.310Z,91.10
2018-11-28T06:34:01.635Z,90.80
2018-11-28T06:36:29.972Z,90.80
2018-11-28T06:38:58.361Z,90.60
2018-11-28T06:41:26.814Z,90.50
2018-11-28T06:43:55.271Z,90.20
2018-11-28T06:46:23.546Z,90.20
2018-11-28T06:48:51.913Z,90.50
2018-11-28T06:51:20.170Z,90.40
2018-11-28T06:53:49.513Z,90.00
2018-11-28T06:56:17.840Z,94.30
2018-11-28T06:58:46.246Z,88.80
2018-11-28T07:06:10.865Z,99.90
2018-11-28T07:08:39.056Z,88.50
2018-11-28T07:13:35.400Z,87.70
2018-11-28T07:16:03.648Z,87.60
2018-11-28T07:21:05.313Z,86.50
2018-11-28T07:23:33.495Z,86.50
2018-11-28T07:26:01.765Z,86.20
2018-11-28T07:28:29.962Z,86.60
2018-11-28T07:30:58.196Z,86.40
2018-11-28T07:33:26.423Z,86.60
2018-11-28T07:35:54.778Z,86.90
2018-11-28T07:38:23.032Z,86.70
2018-11-28T07:40:51.439Z,86.40
2018-11-28T07:43:19.821Z,87.20
2018-11-28T07:45:49.394Z,86.10
2018-11-28T07:48:17.643Z,86.60
2018-11-28T07:50:45.931Z,86.90
2018-11-28T07:53:14.435Z,87.60
2018-11-28T07:55:42.824Z,87.50
2018-11-28T07:58:11.052Z,94.40
2018-11-28T08:00:39.234Z,87.70
2018-11-28T08:03:08.682Z,87.60
2018-11-28T08:08:07.116Z,87.50
2018-11-28T08:10:35.385Z,99.90
2018-11-28T08:15:31.602Z,88.30
2018-11-28T08:17:59.857Z,89.50
2018-11-28T08:20:28.110Z,89.20
2018-11-28T08:22:56.473Z,88.70
2018-11-28T08:25:27.683Z,88.80
2018-11-28T08:27:53.012Z,88.90
2018-11-28T08:30:22.438Z,96.10
2018-11-28T08:32:50.770Z,95.80
2018-11-28T08:35:19.066Z,85.60
2018-11-28T08:37:47.394Z,82.60
2018-11-28T08:40:17.906Z,82.30
2018-11-28T08:42:46.139Z,83.20
2018-11-28T08:45:16.273Z,83.20
2018-11-28T08:47:45.488Z,83.90
2018-11-28T08:50:17.011Z,83.00
2018-11-28T08:52:45.365Z,83.60
2018-11-28T08:55:13.859Z,83.40
2018-11-28T08:57:42.209Z,83.80
2018-11-28T09:00:15.634Z,84.60
2018-11-28T09:02:52.676Z,85.30
2018-11-28T09:05:20.893Z,85.90
2018-11-28T09:07:49.182Z,84.30
2018-11-28T09:10:18.211Z,83.90
2018-11-28T09:12:46.902Z,85.60
2018-11-28T09:15:16.268Z,84.90
2018-11-28T09:20:14.138Z,84.60
2018-11-28T09:22:42.461Z,84.00
2018-11-28T09:25:12.729Z,84.80
2018-11-28T09:27:41.058Z,84.50
2018-11-28T09:30:14.856Z,86.10
2018-11-28T09:32:43.115Z,84.60
2018-11-28T09:35:12.034Z,85.90
2018-11-28T09:37:45.435Z,84.40
2018-11-28T09:40:15.529Z,82.90
2018-11-28T09:42:43.846Z,81.60
2018-11-28T09:45:15.237Z,82.30
2018-11-28T09:47:43.572Z,83.00
2018-11-28T09:52:40.706Z,79.90
2018-11-28T09:55:13.323Z,81.10
2018-11-28T09:57:41.620Z,82.40
2018-11-28T10:00:14.111Z,81.10
2018-11-28T10:02:42.526Z,80.10
2018-11-28T10:05:12.580Z,81.00
2018-11-28T10:07:41.035Z,81.40
2018-11-28T10:10:11.467Z,80.20
2018-11-28T10:12:39.889Z,79.90
2018-11-28T10:15:12.985Z,77.40
2018-11-28T10:17:41.435Z,77.60
2018-11-28T10:20:11.017Z,78.40
2018-11-28T10:22:39.670Z,77.60
2018-11-28T10:25:09.976Z,98.00
2018-11-28T10:27:38.382Z,77.40
2018-11-28T10:30:12.639Z,78.60
2018-11-28T10:32:41.103Z,79.70
2018-11-28T10:35:09.536Z,90.90
2018-11-28T10:40:23.580Z,93.70
2018-11-28T10:42:59.778Z,77.60
2018-11-28T10:50:24.741Z,78.50
2018-11-28T10:52:53.121Z,78.10
2018-11-28T10:57:50.021Z,78.80
2018-11-28T11:00:27.480Z,79.60
2018-11-28T11:03:01.308Z,78.50
2018-11-28T11:05:35.188Z,80.30
2018-11-28T11:08:08.855Z,80.00
2018-11-28T11:10:43.566Z,80.80
2018-11-28T11:13:16.285Z,79.40
2018-11-28T11:15:48.859Z,79.40
2018-11-28T11:18:17.261Z,79.60
2018-11-28T11:23:13.690Z,79.00
2018-11-28T11:25:42.154Z,80.50
2018-11-28T11:28:10.608Z,80.90
2018-11-28T11:30:38.978Z,81.70
2018-11-28T11:33:07.288Z,82.40
2018-11-28T11:35:35.695Z,83.40
2018-11-28T11:38:04.175Z,83.60
2018-11-28T11:40:32.530Z,81.90
2018-11-28T11:43:01.058Z,81.60
2018-11-28T11:45:29.401Z,82.10
2018-11-28T11:52:53.947Z,96.10
2018-11-28T12:02:25.975Z,84.20
2018-11-28T12:04:54.373Z,85.70
2018-11-28T12:07:22.853Z,85.50
2018-11-28T12:12:19.262Z,84.20
2018-11-28T12:14:47.618Z,83.90
2018-11-28T12:17:16.197Z,84.20
2018-11-28T12:19:44.598Z,85.00
2018-11-28T12:22:12.980Z,85.30
2018-11-28T12:24:41.350Z,85.50
2018-11-28T12:27:09.677Z,86.10
2018-11-28T12:29:38.062Z,86.60
2018-11-28T12:34:34.630Z,87.40
2018-11-28T12:37:02.976Z,86.00
2018-11-28T12:46:55.786Z,85.60
2018-11-28T12:49:24.176Z,85.70
2018-11-28T12:51:52.550Z,84.50
2018-11-28T12:56:49.086Z,84.20
2018-11-28T12:59:17.460Z,84.80
2018-11-28T13:01:45.751Z,84.90
2018-11-28T13:04:14.082Z,84.10
2018-11-28T13:06:42.476Z,84.20
2018-11-28T13:09:10.958Z,84.70
2018-11-28T13:11:39.176Z,84.90
2018-11-28T13:14:07.530Z,84.80
2018-11-28T13:16:35.962Z,85.20
2018-11-28T13:19:04.303Z,85.30
2018-11-28T13:21:32.647Z,84.70
2018-11-28T13:24:01.032Z,85.40
2018-11-28T13:26:29.393Z,84.90
2018-11-28T13:28:57.750Z,83.90
2018-11-28T13:31:26.108Z,83.40
2018-11-28T13:33:54.565Z,82.80
2018-11-28T13:36:23.025Z,83.30
2018-11-28T13:38:51.405Z,83.20
2018-11-28T13:41:19.727Z,96.70
2018-11-28T13:43:48.160Z,84.30
2018-11-28T13:46:16.611Z,84.50
2018-11-28T13:48:45.009Z,84.30
2018-11-28T13:51:13.437Z,84.00
2018-11-28T13:53:41.749Z,83.80
2018-11-28T13:58:38.461Z,84.00
2018-11-28T14:01:06.934Z,84.10
2018-11-28T14:03:35.326Z,84.60
2018-11-28T14:08:31.711Z,85.40
2018-11-28T14:13:28.193Z,85.10
2018-11-28T14:15:56.673Z,84.90
2018-11-28T14:18:25.125Z,84.90
2018-11-28T14:23:21.565Z,85.80
2018-11-28T14:25:50.003Z,86.20
2018-11-28T14:28:18.346Z,86.30
2018-11-28T14:33:15.130Z,86.20
2018-11-28T14:45:36.518Z,86.70
2018-11-28T14:53:02.258Z,87.90
2018-11-28T14:55:32.919Z,88.10
2018-11-28T14:58:01.866Z,87.90
2018-11-28T15:00:31.919Z,87.60
2018-11-28T15:03:07.120Z,88.00
2018-11-28T15:05:55.680Z,87.70
2018-11-28T15:08:24.205Z,89.10
2018-11-28T15:11:00.946Z,89.20
2018-11-28T15:13:29.346Z,90.10
2018-11-28T15:15:57.708Z,90.10
2018-11-28T15:18:26.116Z,88.10
2018-11-28T15:20:54.482Z,91.20
2018-11-28T15:23:23.007Z,88.70
2018-11-28T15:25:51.492Z,89.00
2018-11-28T15:28:20.016Z,87.90
2018-11-28T15:30:48.385Z,87.70
2018-11-28T15:33:16.737Z,88.10
2018-11-28T15:35:45.095Z,88.00
2018-11-28T15:38:13.451Z,88.50
2018-11-28T15:40:41.889Z,88.60
2018-11-28T15:43:10.332Z,88.00
2018-11-28T15:45:38.664Z,88.20
2018-11-28T15:48:07.272Z,89.20
2018-11-28T15:50:35.588Z,88.40
2018-11-28T16:00:28.219Z,88.30
2018-11-28T16:02:56.556Z,88.80
2018-11-28T16:05:24.771Z,89.60
2018-11-28T16:07:53.123Z,88.00
2018-11-28T16:10:26.942Z,88.10
2018-11-28T16:12:55.339Z,88.20
2018-11-28T16:17:52.545Z,88.70
2018-11-28T16:22:49.158Z,89.10
2018-11-28T16:25:17.629Z,88.80
2018-11-28T16:27:46.241Z,88.80
2018-11-28T16:30:15.754Z,88.50
2018-11-28T16:32:46.088Z,88.50
2018-11-28T16:35:15.516Z,90.00
2018-11-28T16:37:44.015Z,90.70
2018-11-28T16:40:14.329Z,88.60
2018-11-28T16:42:42.891Z,87.30
2018-11-28T16:45:19.059Z,86.90
2018-11-28T16:47:47.998Z,86.90
2018-11-28T16:50:17.034Z,86.70
2018-11-28T16:52:45.626Z,86.80
2018-11-28T16:57:44.918Z,86.60
2018-11-28T17:00:15.278Z,86.60
2018-11-28T17:02:43.621Z,94.90
2018-11-28T17:10:12.261Z,87.10
2018-11-28T17:12:40.614Z,86.60
2018-11-28T17:15:12.487Z,86.50
2018-11-28T17:17:40.958Z,86.70
2018-11-28T17:20:14.022Z,87.10
2018-11-28T17:22:42.562Z,87.40
2018-11-28T17:27:46.322Z,89.30
2018-11-28T17:30:18.802Z,89.00
2018-11-28T17:32:43.860Z,86.80
2018-11-28T17:35:13.818Z,85.80
2018-11-28T17:37:42.983Z,85.50
2018-11-28T17:40:17.368Z,86.00
2018-11-28T17:42:46.969Z,86.40
2018-11-28T17:45:16.311Z,87.10
2018-11-28T17:47:44.706Z,86.90
2018-11-28T17:50:14.330Z,87.00
2018-11-28T17:52:51.313Z,86.80
2018-11-28T17:55:19.690Z,87.00
2018-11-28T17:57:48.149Z,87.50
2018-11-28T18:00:17.483Z,87.20
2018-11-28T18:02:45.808Z,87.10
2018-11-28T18:05:14.204Z,86.90
2018-11-28T18:07:42.546Z,87.10
2018-11-28T18:10:18.829Z,87.20
2018-11-28T18:12:58.403Z,87.10
2018-11-28T18:15:26.732Z,87.30
2018-11-28T18:17:56.143Z,87.60
2018-11-28T18:20:25.582Z,88.20
2018-11-28T18:22:53.923Z,88.40
2018-11-28T18:27:51.066Z,89.00
2018-11-28T18:35:15.641Z,89.10
2018-11-28T18:37:44.077Z,89.00
2018-11-28T18:40:12.934Z,88.60
2018-11-28T18:42:42.410Z,88.60
2018-11-28T18:45:18.362Z,88.60
2018-11-28T18:47:45.612Z,88.60
2018-11-28T18:52:42.222Z,88.80
2018-11-28T18:55:16.616Z,88.80
2018-11-28T18:57:41.304Z,88.70
2018-11-28T19:00:18.630Z,88.60
2018-11-28T19:02:46.958Z,88.70
2018-11-28T19:05:15.308Z,88.90
2018-11-28T19:07:43.687Z,89.20
2018-11-28T19:10:17.095Z,89.80
2018-11-28T19:12:45.466Z,89.60
2018-11-28T19:17:44.621Z,89.00
2018-11-28T19:20:14.005Z,89.70
2018-11-28T19:22:42.847Z,88.50
2018-11-28T19:25:13.072Z,88.50
2018-11-28T19:27:41.339Z,88.40
2018-11-28T19:30:13.654Z,88.30
2018-11-28T19:32:41.918Z,88.60
2018-11-28T19:35:10.975Z,88.80
2018-11-28T19:37:40.049Z,89.10
2018-11-28T19:40:16.901Z,88.70
2018-11-28T19:42:45.139Z,88.60
2018-11-28T19:45:13.354Z,88.20
2018-11-28T19:50:12.516Z,99.80
2018-11-28T19:52:40.785Z,89.20
2018-11-28T19:55:09.515Z,88.90
2018-11-28T20:00:10.204Z,89.00
2018-11-28T20:02:38.385Z,89.90
2018-11-28T20:05:06.620Z,89.90
2018-11-28T20:07:34.979Z,88.90
2018-11-28T20:10:03.251Z,89.60
2018-11-28T20:12:31.417Z,88.80
2018-11-28T20:14:59.733Z,89.40
2018-11-28T20:17:27.874Z,89.40
2018-11-28T20:19:56.062Z,89.80
2018-11-28T20:22:24.254Z,90.20
2018-11-28T20:24:52.475Z,90.30
2018-11-28T20:27:20.659Z,90.00
2018-11-28T20:29:48.875Z,90.00
2018-11-28T20:32:17.081Z,90.00
2018-11-28T20:34:45.234Z,90.20
2018-11-28T20:37:13.443Z,90.10
2018-11-28T20:39:41.627Z,90.30
2018-11-28T20:42:09.824Z,90.00
2018-11-28T20:44:38.007Z,89.90
2018-11-28T20:47:06.209Z,90.00
2018-11-28T20:54:30.321Z,96.20
2018-11-28T20:56:58.524Z,89.60
2018-11-28T20:59:26.681Z,89.40
2018-11-28T21:01:54.918Z,88.70
2018-11-28T21:04:23.078Z,88.80
2018-11-28T21:06:51.294Z,88.90
2018-11-28T21:09:19.463Z,89.20
2018-11-28T21:11:47.755Z,88.90
2018-11-28T21:14:15.984Z,88.80
2018-11-28T21:16:44.193Z,88.80
2018-11-28T21:19:12.472Z,88.80
2018-11-28T21:21:40.727Z,88.80
2018-11-28T21:24:08.907Z,89.10
2018-11-28T21:26:37.126Z,89.00
2018-11-28T21:29:05.407Z,89.00
2018-11-28T21:31:33.645Z,89.10
2018-11-28T21:34:01.814Z,89.00
2018-11-28T21:36:30.201Z,89.20
2018-11-28T21:38:58.460Z,88.50
2018-11-28T21:41:26.826Z,99.90
2018-11-28T21:43:55.214Z,88.80
2018-11-28T21:56:22.416Z,88.90
2018-11-28T21:58:50.600Z,89.90
2018-11-28T22:01:18.764Z,89.70
2018-11-28T22:03:46.994Z,89.90
2018-11-28T22:06:15.263Z,89.80
2018-11-28T22:08:43.445Z,89.90
2018-11-28T22:11:11.689Z,89.50
2018-11-28T22:13:39.877Z,89.50
2018-11-28T22:16:08.094Z,89.30
2018-11-28T22:18:36.340Z,89.30
2018-11-28T22:21:05.149Z,89.20
2018-11-28T22:23:33.329Z,89.20
2018-11-28T22:26:01.505Z,89.10
2018-11-28T22:28:29.764Z,89.20
2018-11-28T22:30:57.932Z,89.60
2018-11-28T22:33:26.125Z,89.80
2018-11-28T22:35:54.425Z,89.80
2018-11-28T22:38:22.682Z,89.80
2018-11-28T22:40:50.955Z,89.60
2018-11-28T22:43:19.204Z,90.00
2018-11-28T22:45:47.453Z,88.50
2018-11-28T22:48:15.737Z,88.40
2018-11-28T22:58:08.026Z,89.10
2018-11-28T23:00:41.685Z,90.20
2018-11-28T23:03:10.627Z,90.20
2018-11-28T23:05:45.972Z,90.40
2018-11-28T23:08:15.422Z,90.50
2018-11-28T23:10:43.735Z,90.60
2018-11-28T23:13:13.907Z,90.60
2018-11-28T23:15:42.236Z,90.70
2018-11-28T23:18:11.056Z,90.30
2018-11-28T23:20:39.347Z,90.60
2018-11-28T23:23:08.414Z,90.60
2018-11-28T23:25:37.276Z,90.50
2018-11-28T23:28:05.938Z,90.80
2018-11-28T23:30:34.208Z,90.70
2018-11-28T23:33:02.948Z,90.60
2018-11-28T23:35:31.450Z,90.60
2018-11-28T23:38:00.049Z,90.90
2018-11-28T23:40:28.303Z,90.90
2018-11-28T23:42:56.712Z,90.60
2018-11-28T23:45:25.716Z,90.50
2018-11-28T23:47:54.290Z,90.80
2018-11-28T23:50:23.353Z,90.70
2018-11-28T23:52:52.441Z,90.70
2018-11-28T23:55:22.658Z,90.50
